Time;durP1;ratioP1;P1;durP2;ratioP2;P2;SDS_P1;SDS_P2;PMS_P1;PMS_P2;Temp;Humidity;BMP_temperature;BMP_pressure;BME280_temperature;BME280_humidity;BME280_pressure;Samples;Min_cycle;Max_cycle;Signal;HPM_P1;HPM_P2
2022/09/29 00:02:17;;;;;;;;;;;10.50;99.90;;;;;;5013270;28;19941;-78
2022/09/29 00:04:43;;;;;;;;;;;10.40;99.90;;;;;;5013124;28;19917;-79
2022/09/29 00:07:08;;;;;;;;;;;10.40;99.90;;;;;;5013139;28;20012;-79
2022/09/29 00:09:34;;;;;;;;;;;10.30;99.90;;;;;;4995927;28;19910;-78
2022/09/29 00:12:00;;;;;;;;;;;10.30;99.90;;;;;;5013368;28;19913;-78
2022/09/29 00:14:25;;;;;;;;;;;10.30;99.90;;;;;;5012968;28;19909;-79
2022/09/29 00:16:51;;;;;;;;;;;10.20;99.90;;;;;;5013462;28;20341;-79
2022/09/29 00:19:18;;;;;;;;;;;10.20;99.90;;;;;;5014097;28;20412;-80
2022/09/29 00:21:43;;;;;;;;;;;10.20;99.90;;;;;;5012881;28;20400;-80
2022/09/29 00:24:09;;;;;;;;;;;10.10;99.90;;;;;;5013028;28;19909;-80
2022/09/29 00:26:34;;;;;;;;;;;10.10;99.90;;;;;;4994993;28;19917;-80
2022/09/29 00:29:00;;;;;;;;;;;10.00;99.90;;;;;;4995019;28;19909;-80
2022/09/29 00:31:26;;;;;;;;;;;10.00;99.90;;;;;;5013200;28;19909;-80
2022/09/29 00:33:52;;;;;;;;;;;10.00;99.90;;;;;;5013036;28;20310;-80
2022/09/29 00:36:18;;;;;;;;;;;9.90;99.90;;;;;;4995040;28;20032;-80
2022/09/29 00:38:45;;;;;;;;;;;9.90;99.90;;;;;;5013484;28;19936;-80
2022/09/29 00:41:16;;;;;;;;;;;9.90;99.90;;;;;;4995671;28;19909;-80
2022/09/29 00:44:02;;;;;;;;;;;9.90;99.90;;;;;;5012797;28;20008;-80
2022/09/29 00:46:39;;;;;;;;;;;9.80;99.90;;;;;;4995175;28;19917;-80
2022/09/29 00:49:14;;;;;;;;;;;9.90;99.90;;;;;;5012919;28;20265;-80
2022/09/29 00:51:41;;;;;;;;;;;9.80;99.90;;;;;;5012896;28;20289;-80
2022/09/29 00:54:07;;;;;;;;;;;9.80;99.90;;;;;;4995170;28;19910;-80
2022/09/29 00:56:33;;;;;;;;;;;9.80;99.90;;;;;;5012568;28;20003;-80
2022/09/29 00:59:00;;;;;;;;;;;9.80;99.90;;;;;;5016404;28;19913;-80
2022/09/29 01:01:29;;;;;;;;;;;9.70;99.90;;;;;;5016679;28;20334;-80
2022/09/29 01:03:56;;;;;;;;;;;9.70;99.90;;;;;;4998655;28;19910;-78
2022/09/29 01:06:25;;;;;;;;;;;9.70;99.90;;;;;;5016396;28;20391;-78
2022/09/29 01:08:56;;;;;;;;;;;9.70;99.90;;;;;;5016654;28;20300;-78
2022/09/29 01:11:22;;;;;;;;;;;9.70;99.90;;;;;;4998892;28;19960;-78
2022/09/29 01:13:48;;;;;;;;;;;9.70;99.90;;;;;;5016333;28;19913;-78
2022/09/29 01:16:13;;;;;;;;;;;9.60;99.90;;;;;;5015970;28;19952;-78
2022/09/29 01:18:40;;;;;;;;;;;9.60;99.90;;;;;;5016220;28;19913;-78
2022/09/29 01:21:24;;;;;;;;;;;9.50;99.90;;;;;;5016295;28;19916;-78
2022/09/29 01:24:05;;;;;;;;;;;9.50;99.90;;;;;;5016060;28;19909;-79
2022/09/29 01:26:49;;;;;;;;;;;9.50;99.90;;;;;;5015869;28;19909;-78
2022/09/29 01:29:27;;;;;;;;;;;9.50;99.90;;;;;;4998216;28;19917;-78
2022/09/29 01:31:56;;;;;;;;;;;9.50;99.90;;;;;;5016157;28;19949;-78
2022/09/29 01:34:28;;;;;;;;;;;9.40;99.90;;;;;;5015719;28;19916;-78
2022/09/29 01:36:59;;;;;;;;;;;9.40;99.90;;;;;;4997898;28;19952;-78
2022/09/29 01:39:34;;;;;;;;;;;9.40;99.90;;;;;;5015680;28;19913;-78
2022/09/29 01:42:03;;;;;;;;;;;9.30;99.90;;;;;;5015665;28;20293;-78
2022/09/29 01:44:35;;;;;;;;;;;9.30;99.90;;;;;;5015522;28;19973;-78
2022/09/29 01:47:08;;;;;;;;;;;9.30;99.90;;;;;;5015466;28;19963;-78
2022/09/29 01:49:36;;;;;;;;;;;9.30;99.90;;;;;;4998113;28;19909;-78
2022/09/29 01:52:05;;;;;;;;;;;9.20;99.90;;;;;;5015900;28;19909;-78
2022/09/29 01:54:35;;;;;;;;;;;9.20;99.90;;;;;;5015352;28;20371;-78
2022/09/29 01:57:03;;;;;;;;;;;9.20;99.90;;;;;;5015356;28;19913;-78
2022/09/29 01:59:46;;;;;;;;;;;9.20;99.90;;;;;;5015403;28;19916;-78
2022/09/29 02:02:15;;;;;;;;;;;9.20;99.90;;;;;;5015663;28;19910;-78
2022/09/29 02:04:53;;;;;;;;;;;9.20;99.90;;;;;;5015040;28;19918;-78
2022/09/29 02:07:24;;;;;;;;;;;9.20;99.90;;;;;;5015114;28;19995;-78
2022/09/29 02:09:52;;;;;;;;;;;9.10;99.90;;;;;;5015255;28;19917;-78
2022/09/29 02:12:21;;;;;;;;;;;9.10;99.90;;;;;;5015417;28;19921;-78
2022/09/29 02:14:47;;;;;;;;;;;9.10;99.90;;;;;;4997565;28;19910;-78
2022/09/29 02:17:18;;;;;;;;;;;9.10;99.90;;;;;;5014950;28;19921;-78
2022/09/29 02:19:45;;;;;;;;;;;9.10;99.90;;;;;;5015088;28;19909;-78
2022/09/29 02:22:11;;;;;;;;;;;9.10;99.90;;;;;;5016028;28;19917;-78
2022/09/29 02:24:37;;;;;;;;;;;9.10;99.90;;;;;;5015840;28;19917;-78
2022/09/29 02:27:02;;;;;;;;;;;9.10;99.90;;;;;;5016000;28;19909;-79
2022/09/29 02:29:28;;;;;;;;;;;9.10;99.90;;;;;;5015866;28;20296;-78
2022/09/29 02:31:54;;;;;;;;;;;9.00;99.90;;;;;;5016054;28;19972;-78
2022/09/29 02:34:20;;;;;;;;;;;9.10;99.90;;;;;;5015989;28;19909;-78
2022/09/29 02:36:46;;;;;;;;;;;9.00;99.90;;;;;;5015207;28;19909;-78
2022/09/29 02:39:21;;;;;;;;;;;9.00;99.90;;;;;;5015308;28;19960;-78
2022/09/29 02:41:52;;;;;;;;;;;9.00;99.90;;;;;;5015664;28;19945;-78
2022/09/29 02:44:29;;;;;;;;;;;9.00;99.90;;;;;;5015336;28;19953;-78
2022/09/29 02:47:13;;;;;;;;;;;9.00;99.90;;;;;;5015665;28;20393;-78
2022/09/29 02:49:50;;;;;;;;;;;8.90;99.90;;;;;;5015155;28;20006;-78
2022/09/29 02:52:21;;;;;;;;;;;8.90;99.90;;;;;;5015277;28;19910;-78
2022/09/29 02:54:53;;;;;;;;;;;8.90;99.90;;;;;;4997201;28;19910;-78
2022/09/29 02:57:30;;;;;;;;;;;8.90;99.90;;;;;;5014715;28;19913;-78
2022/09/29 03:00:10;;;;;;;;;;;8.80;99.90;;;;;;4997473;28;20025;-78
2022/09/29 03:02:36;;;;;;;;;;;8.80;99.90;;;;;;5014903;28;20429;-78
2022/09/29 03:05:03;;;;;;;;;;;8.80;99.90;;;;;;5014604;28;19921;-78
2022/09/29 03:07:28;;;;;;;;;;;8.80;99.90;;;;;;5014378;28;20431;-78
2022/09/29 03:09:54;;;;;;;;;;;8.80;99.90;;;;;;5014600;28;19996;-78
2022/09/29 03:12:19;;;;;;;;;;;8.80;99.90;;;;;;4996801;28;19909;-78
2022/09/29 03:14:45;;;;;;;;;;;8.80;99.90;;;;;;5014568;28;19971;-78
2022/09/29 03:17:10;;;;;;;;;;;8.90;99.90;;;;;;4996746;28;19909;-78
2022/09/29 03:19:36;;;;;;;;;;;8.90;99.90;;;;;;5014782;28;20428;-78
2022/09/29 03:22:02;;;;;;;;;;;8.80;99.90;;;;;;5013530;28;19910;-78
2022/09/29 03:24:28;;;;;;;;;;;8.80;99.90;;;;;;4996317;28;19913;-78
2022/09/29 03:26:53;;;;;;;;;;;8.80;99.90;;;;;;5013697;28;19917;-78
2022/09/29 03:29:19;;;;;;;;;;;8.90;99.90;;;;;;5014194;28;20368;-78
2022/09/29 03:31:44;;;;;;;;;;;8.90;99.90;;;;;;5013904;28;19914;-78
2022/09/29 03:34:10;;;;;;;;;;;8.90;99.90;;;;;;5013958;28;19961;-78
2022/09/29 03:36:35;;;;;;;;;;;8.80;99.90;;;;;;5013540;28;19931;-78
2022/09/29 03:39:01;;;;;;;;;;;8.80;99.90;;;;;;5013720;28;19914;-78
2022/09/29 03:41:26;;;;;;;;;;;8.80;99.90;;;;;;5013698;28;19984;-78
2022/09/29 03:43:52;;;;;;;;;;;8.70;99.90;;;;;;5013519;28;19910;-78
2022/09/29 03:46:17;;;;;;;;;;;8.70;99.90;;;;;;5013494;28;19913;-78
2022/09/29 03:48:43;;;;;;;;;;;8.70;99.90;;;;;;5013742;28;20282;-78
2022/09/29 03:51:09;;;;;;;;;;;8.70;99.90;;;;;;5013591;28;20024;-78
2022/09/29 03:53:34;;;;;;;;;;;8.70;99.90;;;;;;5013549;28;19916;-78
2022/09/29 03:56:00;;;;;;;;;;;8.70;99.90;;;;;;5012987;28;19996;-78
2022/09/29 03:58:26;;;;;;;;;;;8.60;99.90;;;;;;4995854;28;19913;-78
2022/09/29 04:00:51;;;;;;;;;;;8.60;99.90;;;;;;5013302;28;19977;-78
2022/09/29 04:03:17;;;;;;;;;;;8.60;99.90;;;;;;5013378;28;19920;-78
2022/09/29 04:05:46;;;;;;;;;;;8.60;99.90;;;;;;5012657;28;19918;-78
2022/09/29 04:08:12;;;;;;;;;;;8.60;99.90;;;;;;5013425;28;19909;-78
2022/09/29 04:10:38;;;;;;;;;;;8.60;99.90;;;;;;5013099;28;20357;-78
2022/09/29 04:13:04;;;;;;;;;;;8.60;99.90;;;;;;5013259;28;19909;-78
2022/09/29 04:15:30;;;;;;;;;;;8.60;99.90;;;;;;4995617;28;20495;-78
2022/09/29 04:17:55;;;;;;;;;;;8.60;99.90;;;;;;4995251;28;19920;-78
2022/09/29 04:20:21;;;;;;;;;;;8.50;99.90;;;;;;5013380;28;19996;-78
2022/09/29 04:22:46;;;;;;;;;;;8.50;99.90;;;;;;5012956;28;19916;-78
2022/09/29 04:25:12;;;;;;;;;;;8.50;99.90;;;;;;5013036;28;19932;-78
2022/09/29 04:27:37;;;;;;;;;;;8.50;99.90;;;;;;5012843;28;20444;-78
2022/09/29 04:30:03;;;;;;;;;;;8.50;99.90;;;;;;5012897;28;19916;-78
2022/09/29 04:32:29;;;;;;;;;;;8.50;99.90;;;;;;5014497;28;20385;-78
2022/09/29 04:34:54;;;;;;;;;;;8.50;99.90;;;;;;5016754;28;19916;-78
2022/09/29 04:37:19;;;;;;;;;;;8.60;99.90;;;;;;5016589;28;19913;-78
2022/09/29 04:39:45;;;;;;;;;;;8.60;99.90;;;;;;5016869;28;19910;-78
2022/09/29 04:42:10;;;;;;;;;;;8.60;99.90;;;;;;5016849;28;19909;-78
2022/09/29 04:44:36;;;;;;;;;;;8.60;99.90;;;;;;5016707;28;19909;-78
2022/09/29 04:47:01;;;;;;;;;;;8.50;99.90;;;;;;5016505;28;19910;-78
2022/09/29 04:49:27;;;;;;;;;;;8.50;99.90;;;;;;5021695;28;19921;-78
2022/09/29 04:51:53;;;;;;;;;;;8.50;99.90;;;;;;5021799;28;19914;-78
2022/09/29 04:54:18;;;;;;;;;;;8.50;99.90;;;;;;5003979;28;19909;-78
2022/09/29 04:56:46;;;;;;;;;;;8.50;99.90;;;;;;5020430;28;19917;-78
2022/09/29 04:59:12;;;;;;;;;;;8.50;99.90;;;;;;5016404;28;19913;-78
2022/09/29 05:01:37;;;;;;;;;;;8.50;99.90;;;;;;5016787;28;20451;-78
2022/09/29 05:04:03;;;;;;;;;;;8.50;99.90;;;;;;4998594;28;19913;-77
2022/09/29 05:06:28;;;;;;;;;;;8.50;99.90;;;;;;5035107;23;19925;-84
2022/09/29 05:08:54;;;;;;;;;;;8.50;99.90;;;;;;5004090;28;20392;-85
2022/09/29 05:11:19;;;;;;;;;;;8.50;99.90;;;;;;5004046;28;19917;-84
2022/09/29 05:13:47;;;;;;;;;;;8.50;99.90;;;;;;5020439;28;19909;-85
2022/09/29 05:16:13;;;;;;;;;;;8.50;99.90;;;;;;5002674;28;19909;-84
2022/09/29 05:18:38;;;;;;;;;;;8.40;99.90;;;;;;5002251;28;19924;-85
2022/09/29 05:21:05;;;;;;;;;;;8.50;99.90;;;;;;5001824;28;19960;-86
2022/09/29 05:23:30;;;;;;;;;;;8.50;99.90;;;;;;5001765;28;20439;-85
2022/09/29 05:25:59;;;;;;;;;;;8.50;99.90;;;;;;5019259;28;19929;-85
2022/09/29 05:28:25;;;;;;;;;;;8.50;99.90;;;;;;5001871;28;19910;-84
2022/09/29 05:30:50;;;;;;;;;;;8.50;99.90;;;;;;5001596;28;19910;-85
2022/09/29 05:33:16;;;;;;;;;;;8.40;99.90;;;;;;5001522;28;19920;-85
2022/09/29 05:35:41;;;;;;;;;;;8.40;99.90;;;;;;5000333;28;19916;-84
2022/09/29 05:38:07;;;;;;;;;;;8.40;99.90;;;;;;5001290;28;19972;-84
2022/09/29 05:40:32;;;;;;;;;;;8.50;99.90;;;;;;5019565;28;19914;-85
2022/09/29 05:42:58;;;;;;;;;;;8.50;99.90;;;;;;5001380;28;20296;-84
2022/09/29 05:45:24;;;;;;;;;;;8.40;99.90;;;;;;5000971;28;19909;-85
2022/09/29 05:47:49;;;;;;;;;;;8.40;99.90;;;;;;5001830;28;19916;-85
2022/09/29 05:50:15;;;;;;;;;;;8.50;99.90;;;;;;5001317;28;19910;-85
2022/09/29 05:52:40;;;;;;;;;;;8.50;99.90;;;;;;5001002;28;19959;-84
2022/09/29 05:55:09;;;;;;;;;;;8.50;99.90;;;;;;5000521;28;20420;-85
2022/09/29 05:57:35;;;;;;;;;;;8.50;99.90;;;;;;5000242;28;19918;-85
2022/09/29 06:00:01;;;;;;;;;;;8.50;99.90;;;;;;5000319;28;20019;-85
2022/09/29 06:02:27;;;;;;;;;;;8.50;99.90;;;;;;5000091;28;19921;-86
2022/09/29 06:04:52;;;;;;;;;;;8.50;99.90;;;;;;4999362;28;19917;-85
2022/09/29 06:07:17;;;;;;;;;;;8.60;99.90;;;;;;5016715;28;19959;-84
2022/09/29 06:09:43;;;;;;;;;;;8.60;99.90;;;;;;4999334;28;19916;-86
2022/09/29 06:12:08;;;;;;;;;;;8.60;99.90;;;;;;5000607;28;19910;-85
2022/09/29 06:14:34;;;;;;;;;;;8.70;99.90;;;;;;4999700;28;19909;-85
2022/09/29 06:16:59;;;;;;;;;;;8.70;99.90;;;;;;4999824;28;20000;-84
2022/09/29 06:19:27;;;;;;;;;;;8.80;99.90;;;;;;4999730;28;20012;-85
2022/09/29 06:21:52;;;;;;;;;;;8.80;99.90;;;;;;5000755;28;19944;-85
2022/09/29 06:24:18;;;;;;;;;;;8.80;99.90;;;;;;5015401;28;19909;-85
2022/09/29 06:26:43;;;;;;;;;;;8.80;99.90;;;;;;5017704;28;19988;-85
2022/09/29 06:29:09;;;;;;;;;;;8.80;99.90;;;;;;4997930;28;19931;-85
2022/09/29 06:31:34;;;;;;;;;;;8.80;99.90;;;;;;4997026;28;19917;-85
2022/09/29 06:34:01;;;;;;;;;;;8.80;99.90;;;;;;5014762;28;20012;-85
2022/09/29 06:39:13;;;;;;;;;;;8.80;99.90;;;;;;5015084;28;20013;-85
2022/09/29 06:41:39;;;;;;;;;;;8.90;99.90;;;;;;4997239;28;19948;-84
2022/09/29 06:44:05;;;;;;;;;;;8.90;99.90;;;;;;4997349;28;19952;-86
2022/09/29 06:46:30;;;;;;;;;;;8.90;99.90;;;;;;5014809;28;19916;-85
2022/09/29 06:48:56;;;;;;;;;;;8.90;99.90;;;;;;4997293;28;20399;-85
2022/09/29 06:51:22;;;;;;;;;;;9.00;99.90;;;;;;4997046;28;19917;-85
2022/09/29 06:53:48;;;;;;;;;;;9.00;99.90;;;;;;4997318;28;20288;-85
2022/09/29 06:56:14;;;;;;;;;;;9.10;99.90;;;;;;4996405;28;19920;-85
2022/09/29 06:58:39;;;;;;;;;;;9.10;99.90;;;;;;4996808;28;19914;-85
2022/09/29 07:01:05;;;;;;;;;;;9.20;99.90;;;;;;4996781;28;19913;-85
2022/09/29 07:03:34;;;;;;;;;;;9.20;99.90;;;;;;4980605;28;22081;-85
2022/09/29 07:06:06;;;;;;;;;;;9.30;99.90;;;;;;4996270;28;19925;-85
2022/09/29 07:08:35;;;;;;;;;;;9.40;99.90;;;;;;5014240;28;19910;-85
2022/09/29 07:11:02;;;;;;;;;;;9.50;99.90;;;;;;4996528;28;19909;-85
2022/09/29 07:13:27;;;;;;;;;;;9.50;99.90;;;;;;4996509;28;19925;-85
2022/09/29 07:15:53;;;;;;;;;;;9.60;99.90;;;;;;5013998;28;20385;-85
2022/09/29 07:18:19;;;;;;;;;;;9.60;99.90;;;;;;4996236;28;20381;-85
2022/09/29 07:20:44;;;;;;;;;;;9.60;99.90;;;;;;4996289;28;19917;-85
2022/09/29 07:23:10;;;;;;;;;;;9.60;99.90;;;;;;4996345;28;19909;-85
2022/09/29 07:25:36;;;;;;;;;;;9.70;99.90;;;;;;4996059;28;19909;-85
2022/09/29 07:28:01;;;;;;;;;;;9.70;99.90;;;;;;4996108;28;19948;-85
2022/09/29 07:30:27;;;;;;;;;;;9.80;99.90;;;;;;4996151;28;20036;-85
2022/09/29 07:32:54;;;;;;;;;;;10.00;99.90;;;;;;5006194;28;19914;-85
2022/09/29 07:35:20;;;;;;;;;;;10.10;99.90;;;;;;4990234;28;19909;-86
2022/09/29 07:37:55;;;;;;;;;;;10.20;99.90;;;;;;4999826;28;20269;-87
2022/09/29 07:40:21;;;;;;;;;;;10.30;99.90;;;;;;4999903;28;19921;-85
2022/09/29 07:42:47;;;;;;;;;;;10.30;99.90;;;;;;5000107;28;19913;-85
2022/09/29 07:45:13;;;;;;;;;;;10.40;99.90;;;;;;4999360;28;19932;-86
2022/09/29 07:47:39;;;;;;;;;;;10.50;99.90;;;;;;4999758;28;19996;-86
2022/09/29 07:50:05;;;;;;;;;;;10.50;99.90;;;;;;5017779;28;20324;-86
2022/09/29 07:52:30;;;;;;;;;;;10.50;99.90;;;;;;4999877;28;20413;-85
2022/09/29 07:54:56;;;;;;;;;;;10.60;99.90;;;;;;4998571;28;19909;-85
2022/09/29 07:57:22;;;;;;;;;;;10.60;99.90;;;;;;4996990;28;19920;-85
2022/09/29 07:59:47;;;;;;;;;;;10.70;99.90;;;;;;4997062;28;19913;-86
2022/09/29 08:02:12;;;;;;;;;;;10.80;99.90;;;;;;5013952;28;19938;-86
2022/09/29 08:04:38;;;;;;;;;;;10.90;99.90;;;;;;5013851;28;19913;-85
2022/09/29 08:07:03;;;;;;;;;;;11.00;99.90;;;;;;4995278;28;19931;-86
2022/09/29 08:09:29;;;;;;;;;;;11.00;99.90;;;;;;4996309;28;19910;-85
2022/09/29 08:11:54;;;;;;;;;;;11.00;99.90;;;;;;4997463;28;19953;-85
2022/09/29 08:14:21;;;;;;;;;;;11.10;99.90;;;;;;4996257;28;20320;-85
2022/09/29 08:16:46;;;;;;;;;;;11.20;99.90;;;;;;5012548;28;20106;-84
2022/09/29 08:19:12;;;;;;;;;;;11.30;99.90;;;;;;4995675;28;20266;-85
2022/09/29 08:21:37;;;;;;;;;;;11.40;99.90;;;;;;4995890;28;19914;-85
2022/09/29 08:24:03;;;;;;;;;;;11.40;99.90;;;;;;5014006;28;20285;-85
2022/09/29 08:26:30;;;;;;;;;;;11.40;99.90;;;;;;4996087;28;20045;-85
2022/09/29 08:28:56;;;;;;;;;;;11.40;99.90;;;;;;4995919;28;19960;-86
2022/09/29 08:31:21;;;;;;;;;;;11.50;99.90;;;;;;5014157;28;19909;-84
2022/09/29 08:33:50;;;;;;;;;;;11.60;99.90;;;;;;4996464;28;19913;-86
2022/09/29 08:36:17;;;;;;;;;;;11.70;99.90;;;;;;4995194;28;19917;-85
2022/09/29 08:38:43;;;;;;;;;;;11.80;99.90;;;;;;4995952;28;19913;-84
2022/09/29 08:41:31;;;;;;;;;;;11.90;99.90;;;;;;4996734;28;19984;-84
2022/09/29 08:43:59;;;;;;;;;;;11.90;99.90;;;;;;4985822;28;19953;-85
2022/09/29 08:46:32;;;;;;;;;;;11.90;99.90;;;;;;5013280;28;20140;-84
2022/09/29 08:49:00;;;;;;;;;;;12.10;99.90;;;;;;4995495;28;19938;-86
2022/09/29 08:51:29;;;;;;;;;;;12.10;99.90;;;;;;4995992;28;20278;-84
2022/09/29 08:53:57;;;;;;;;;;;12.30;99.90;;;;;;4996188;28;19959;-86
2022/09/29 08:56:24;;;;;;;;;;;12.30;99.90;;;;;;5015356;28;19909;-84
2022/09/29 08:58:50;;;;;;;;;;;12.30;99.90;;;;;;4998333;28;19917;-85
2022/09/29 09:01:41;;;;;;;;;;;12.40;99.90;;;;;;4999263;28;19917;-87
2022/09/29 09:04:19;;;;;;;;;;;12.50;99.90;;;;;;4999031;28;20273;-86
2022/09/29 09:06:51;;;;;;;;;;;12.60;99.90;;;;;;4995426;28;19917;-84
2022/09/29 09:09:22;;;;;;;;;;;12.70;99.90;;;;;;4996141;28;19913;-85
2022/09/29 09:12:07;;;;;;;;;;;12.80;99.90;;;;;;4996564;28;19909;-84
2022/09/29 09:14:45;;;;;;;;;;;12.90;99.90;;;;;;5013883;28;19910;-86
2022/09/29 09:17:22;;;;;;;;;;;13.00;99.90;;;;;;4996266;28;19916;-87
2022/09/29 09:19:54;;;;;;;;;;;13.10;99.90;;;;;;4999753;28;19956;-85
2022/09/29 09:22:23;;;;;;;;;;;13.10;99.90;;;;;;5000528;28;19997;-86
2022/09/29 09:24:57;;;;;;;;;;;13.20;99.90;;;;;;5000117;28;19910;-87
2022/09/29 09:27:40;;;;;;;;;;;13.20;99.90;;;;;;5018467;28;20071;-85
2022/09/29 09:30:11;;;;;;;;;;;13.30;99.90;;;;;;5018844;28;19999;-87
2022/09/29 09:32:42;;;;;;;;;;;13.40;99.90;;;;;;4999954;28;19914;-86
2022/09/29 09:35:16;;;;;;;;;;;13.60;99.90;;;;;;5000141;28;19913;-86
2022/09/29 09:37:43;;;;;;;;;;;13.70;99.90;;;;;;4999274;28;19921;-86
2022/09/29 09:40:13;;;;;;;;;;;13.90;99.90;;;;;;4998462;28;20383;-84
2022/09/29 09:42:41;;;;;;;;;;;14.00;99.90;;;;;;4998226;28;19952;-85
2022/09/29 09:45:13;;;;;;;;;;;14.10;99.90;;;;;;5015363;28;20327;-86
2022/09/29 09:47:48;;;;;;;;;;;14.60;99.90;;;;;;4997404;28;19909;-86
2022/09/29 09:50:14;;;;;;;;;;;15.00;99.90;;;;;;5015598;28;19917;-85
2022/09/29 09:52:45;;;;;;;;;;;15.20;99.90;;;;;;4997893;28;19993;-86
2022/09/29 09:55:18;;;;;;;;;;;15.20;99.90;;;;;;4997394;28;19917;-86
2022/09/29 09:57:52;;;;;;;;;;;15.20;99.90;;;;;;4997339;28;19948;-86
2022/09/29 10:00:22;;;;;;;;;;;15.30;99.90;;;;;;4997585;28;19909;-86
2022/09/29 10:02:49;;;;;;;;;;;15.30;99.90;;;;;;4998942;28;20273;-85
2022/09/29 10:05:19;;;;;;;;;;;15.40;99.90;;;;;;4999562;28;19925;-86
2022/09/29 10:07:47;;;;;;;;;;;15.50;99.90;;;;;;4997899;28;20004;-86
2022/09/29 10:10:16;;;;;;;;;;;15.50;99.90;;;;;;4998192;28;19909;-87
2022/09/29 10:12:41;;;;;;;;;;;15.60;99.90;;;;;;4997693;28;19914;-84
2022/09/29 10:15:19;;;;;;;;;;;15.60;99.90;;;;;;5015379;28;20400;-86
2022/09/29 10:17:48;;;;;;;;;;;15.70;99.90;;;;;;4998190;28;19918;-85
2022/09/29 10:20:27;;;;;;;;;;;15.80;99.90;;;;;;4997492;28;20361;-86
2022/09/29 10:22:53;;;;;;;;;;;15.70;99.90;;;;;;4997876;28;19948;-86
2022/09/29 10:25:19;;;;;;;;;;;15.70;99.90;;;;;;4997506;28;19909;-85
2022/09/29 10:27:47;;;;;;;;;;;15.80;99.90;;;;;;4998555;28;19932;-86
2022/09/29 10:30:21;;;;;;;;;;;15.90;99.90;;;;;;4998092;28;20373;-86
2022/09/29 10:32:47;;;;;;;;;;;16.10;99.90;;;;;;4997431;28;19913;-85
2022/09/29 10:35:15;;;;;;;;;;;16.40;99.90;;;;;;4997291;28;20071;-87
2022/09/29 10:37:41;;;;;;;;;;;16.60;99.90;;;;;;4997654;28;19913;-86
2022/09/29 10:40:07;;;;;;;;;;;16.50;99.90;;;;;;4996911;28;19972;-86
2022/09/29 10:42:36;;;;;;;;;;;16.50;99.90;;;;;;5014998;28;19909;-85
2022/09/29 10:45:16;;;;;;;;;;;16.60;99.90;;;;;;4997094;28;19910;-84
2022/09/29 10:48:05;;;;;;;;;;;16.70;99.90;;;;;;4996496;28;19909;-86
2022/09/29 10:50:33;;;;;;;;;;;16.80;99.90;;;;;;4986932;28;19909;-85
2022/09/29 10:53:19;;;;;;;;;;;16.80;99.90;;;;;;4996912;28;20363;-86
2022/09/29 10:55:50;;;;;;;;;;;16.90;99.90;;;;;;4983646;28;20381;-86
2022/09/29 10:58:22;;;;;;;;;;;17.00;99.90;;;;;;5014665;28;19913;-86
2022/09/29 11:00:47;;;;;;;;;;;17.00;99.90;;;;;;4996153;28;19945;-86
2022/09/29 11:03:17;;;;;;;;;;;17.10;99.90;;;;;;5013835;28;19957;-86
2022/09/29 11:05:50;;;;;;;;;;;17.40;99.90;;;;;;5040768;23;20313;-86
2022/09/29 11:08:16;;;;;;;;;;;17.50;99.90;;;;;;4995012;28;19936;-86
2022/09/29 11:10:42;;;;;;;;;;;17.80;99.90;;;;;;5011256;28;19910;-86
2022/09/29 11:13:28;;;;;;;;;;;18.10;99.90;;;;;;5027724;28;19917;-86
2022/09/29 11:16:01;;;;;;;;;;;18.40;99.90;;;;;;5008684;28;19910;-86
2022/09/29 11:18:33;;;;;;;;;;;18.70;99.90;;;;;;5009636;28;19917;-86
2022/09/29 11:21:05;;;;;;;;;;;18.90;99.90;;;;;;5011068;28;19964;-87
2022/09/29 11:23:42;;;;;;;;;;;19.10;99.90;;;;;;5009927;28;19910;-87
2022/09/29 11:26:11;;;;;;;;;;;19.30;99.90;;;;;;5010477;28;19909;-86
2022/09/29 11:28:43;;;;;;;;;;;20.00;99.90;;;;;;5010258;28;20308;-86
2022/09/29 11:31:16;;;;;;;;;;;20.60;99.90;;;;;;5009107;28;19921;-86
2022/09/29 11:33:54;;;;;;;;;;;20.60;99.90;;;;;;5028519;28;19913;-87
2022/09/29 11:36:27;;;;;;;;;;;20.30;99.90;;;;;;5007427;28;19913;-86
2022/09/29 11:38:59;;;;;;;;;;;20.10;99.90;;;;;;5009094;28;19913;-86
2022/09/29 11:41:25;;;;;;;;;;;19.80;99.90;;;;;;5009330;28;19921;-86
2022/09/29 11:44:03;;;;;;;;;;;19.60;99.90;;;;;;5007297;28;19894;-84
2022/09/29 11:46:32;;;;;;;;;;;19.50;99.90;;;;;;4991822;28;19971;-84
2022/09/29 11:49:09;;;;;;;;;;;19.20;99.90;;;;;;4994284;28;19913;-85
2022/09/29 11:51:38;;;;;;;;;;;19.00;99.90;;;;;;4995157;28;20373;-85
2022/09/29 11:54:39;;;;;;;;;;;19.00;99.90;;;;;;4995987;28;19944;-84
2022/09/29 11:57:34;;;;;;;;;;;18.80;99.90;;;;;;4913832;29;19957;-85
2022/09/29 12:00:06;;;;;;;;;;;18.80;99.90;;;;;;4974590;28;20007;-86
2022/09/29 12:02:38;;;;;;;;;;;18.80;99.90;;;;;;5013845;28;19917;-85
2022/09/29 12:05:06;;;;;;;;;;;18.80;99.90;;;;;;4995446;28;19952;-85
2022/09/29 12:07:35;;;;;;;;;;;18.70;99.90;;;;;;4994806;28;19979;-85
2022/09/29 12:10:08;;;;;;;;;;;18.70;99.90;;;;;;4995324;28;20016;-85
2022/09/29 12:12:54;;;;;;;;;;;18.80;99.90;;;;;;4995910;28;19916;-84
2022/09/29 12:15:43;;;;;;;;;;;18.70;99.90;;;;;;4996720;28;20432;-84
2022/09/29 12:18:17;;;;;;;;;;;18.80;99.90;;;;;;4985402;28;19948;-86
2022/09/29 12:20:43;;;;;;;;;;;19.00;99.90;;;;;;5012910;28;19949;-84
2022/09/29 12:23:11;;;;;;;;;;;19.00;99.90;;;;;;4995548;28;19913;-84
2022/09/29 12:25:39;;;;;;;;;;;19.10;99.90;;;;;;5012615;28;20369;-86
2022/09/29 12:28:10;;;;;;;;;;;18.90;99.90;;;;;;4997014;28;20345;-85
2022/09/29 12:30:57;;;;;;;;;;;18.70;99.90;;;;;;4995829;28;20412;-84
2022/09/29 12:33:46;;;;;;;;;;;18.70;99.90;;;;;;4997091;28;20472;-85
2022/09/29 12:36:44;;;;;;;;;;;18.80;99.90;;;;;;4985854;28;19910;-86
2022/09/29 12:39:28;;;;;;;;;;;18.80;99.90;;;;;;4990177;28;19914;-87
2022/09/29 12:42:05;;;;;;;;;;;18.50;99.90;;;;;;4996163;28;19909;-87
2022/09/29 12:44:43;;;;;;;;;;;18.30;99.90;;;;;;4994283;28;19956;-85
2022/09/29 12:47:14;;;;;;;;;;;18.30;99.90;;;;;;5014405;28;20284;-84
2022/09/29 12:49:54;;;;;;;;;;;18.30;99.90;;;;;;5005822;28;20007;-84
2022/09/29 12:52:28;;;;;;;;;;;18.30;99.90;;;;;;5015398;28;19909;-85
2022/09/29 12:54:57;;;;;;;;;;;18.30;99.90;;;;;;5018314;28;19921;-85
2022/09/29 12:57:30;;;;;;;;;;;18.30;99.90;;;;;;5022816;28;19913;-83
2022/09/29 13:00:14;;;;;;;;;;;18.30;99.90;;;;;;5007657;28;20032;-86
2022/09/29 13:02:43;;;;;;;;;;;18.20;99.90;;;;;;4998911;28;20376;-86
2022/09/29 13:05:20;;;;;;;;;;;18.20;99.90;;;;;;4999802;28;20384;-87
2022/09/29 13:08:05;;;;;;;;;;;18.10;99.90;;;;;;5017886;28;19918;-87
2022/09/29 13:10:39;;;;;;;;;;;18.00;99.90;;;;;;5002394;28;19952;-88
2022/09/29 13:13:23;;;;;;;;;;;18.00;99.90;;;;;;4999680;28;20364;-87
2022/09/29 13:15:55;;;;;;;;;;;17.90;99.90;;;;;;5001346;28;19963;-88
2022/09/29 13:18:20;;;;;;;;;;;17.80;99.90;;;;;;4982692;28;19922;-87
2022/09/29 13:20:49;;;;;;;;;;;17.90;99.90;;;;;;4955481;28;19974;-88
2022/09/29 13:23:33;;;;;;;;;;;17.90;99.90;;;;;;4909438;29;19919;-87
2022/09/29 13:26:17;;;;;;;;;;;17.90;99.90;;;;;;4795354;29;20023;-88
2022/09/29 13:31:24;;;;;;;;;;;18.00;99.90;;;;;;5193036;27;19919;-88
2022/09/29 13:34:05;;;;;;;;;;;18.00;99.90;;;;;;5166718;27;19915;-90
2022/09/29 13:36:35;;;;;;;;;;;18.10;99.90;;;;;;5169381;27;19919;-89
2022/09/29 13:39:01;;;;;;;;;;;18.20;99.90;;;;;;5134106;27;19919;-90
2022/09/29 13:41:38;;;;;;;;;;;18.30;99.90;;;;;;5146234;27;19916;-90
2022/09/29 13:44:16;;;;;;;;;;;18.40;99.90;;;;;;5107159;27;19917;-89
2022/09/29 13:46:42;;;;;;;;;;;18.40;99.90;;;;;;5065159;28;20264;-89
2022/09/29 13:55:39;;;;;;;;;;;18.90;99.90;;;;;;5111195;28;19918;-88
2022/09/29 13:58:47;;;;;;;;;;;19.00;99.90;;;;;;5112282;28;19912;-91
2022/09/29 14:01:37;;;;;;;;;;;19.00;99.90;;;;;;5128694;28;19961;-91
2022/09/29 14:04:21;;;;;;;;;;;18.90;99.90;;;;;;5127728;27;19912;-89
2022/09/29 14:06:57;;;;;;;;;;;18.90;99.90;;;;;;5132737;27;19907;-90
2022/09/29 14:09:32;;;;;;;;;;;18.80;99.90;;;;;;5133497;27;19907;-90
2022/09/29 14:12:18;;;;;;;;;;;18.80;99.90;;;;;;5133699;27;19911;-88
2022/09/29 14:14:46;;;;;;;;;;;18.90;99.90;;;;;;5132836;27;20313;-89
2022/09/29 14:17:27;;;;;;;;;;;19.00;99.90;;;;;;5133033;27;20396;-90
2022/09/29 14:19:53;;;;;;;;;;;18.90;99.90;;;;;;5133226;27;19911;-91
2022/09/29 14:22:41;;;;;;;;;;;18.80;99.90;;;;;;5133238;27;19908;-91
2022/09/29 14:28:32;;;;;;;;;;;;;;;;;;;;;
2022/09/29 14:31:17;;;;;;;;;;;18.50;99.90;;;;;;5117039;27;19934;-89
2022/09/29 14:33:42;;;;;;;;;;;18.70;99.90;;;;;;5132247;27;20622;-88
2022/09/29 14:36:13;;;;;;;;;;;18.80;99.90;;;;;;5131772;27;19956;-88
2022/09/29 14:38:43;;;;;;;;;;;18.80;99.90;;;;;;5132615;27;19911;-86
2022/09/29 14:41:09;;;;;;;;;;;18.70;99.90;;;;;;5151239;27;19907;-87
2022/09/29 14:43:52;;;;;;;;;;;18.50;99.90;;;;;;5130607;27;19956;-87
2022/09/29 14:52:08;;;;;;;;;;;18.40;99.90;;;;;;5146862;27;19922;-89
2022/09/29 14:55:00;;;;;;;;;;;18.30;99.90;;;;;;5128552;28;20423;-88
2022/09/29 14:57:32;;;;;;;;;;;18.30;99.90;;;;;;5030974;28;19955;-89
2022/09/29 15:00:01;;;;;;;;;;;18.70;99.90;;;;;;5112454;28;20375;-90
2022/09/29 15:02:49;;;;;;;;;;;18.90;99.90;;;;;;5102815;28;20431;-89